createdAt,value
2019-03-20T00:00:45.195Z,90.30
2019-03-20T00:03:14.935Z,90.30
2019-03-20T00:05:44.678Z,89.90
2019-03-20T00:08:14.423Z,90.10
2019-03-20T00:10:44.215Z,90.70
2019-03-20T00:13:13.966Z,90.90
2019-03-20T00:15:43.714Z,90.90
2019-03-20T00:18:13.463Z,90.40
2019-03-20T00:20:43.208Z,90.00
2019-03-20T00:23:12.987Z,90.40
2019-03-20T00:25:43.752Z,91.00
2019-03-20T00:28:14.553Z,91.30
2019-03-20T00:30:44.306Z,91.20
2019-03-20T00:33:14.390Z,91.10
2019-03-20T00:35:44.235Z,90.90
2019-03-20T00:38:14.011Z,90.70
2019-03-20T00:40:43.750Z,90.50
2019-03-20T00:43:13.507Z,90.50
2019-03-20T00:45:43.563Z,90.40
2019-03-20T00:48:13.298Z,90.40
2019-03-20T00:50:43.088Z,90.40
2019-03-20T00:53:12.826Z,90.50
2019-03-20T00:55:42.583Z,90.10
2019-03-20T00:58:12.327Z,90.10
2019-03-20T01:00:41.216Z,91.20
2019-03-20T01:03:10.021Z,91.70
2019-03-20T01:05:39.829Z,91.70
2019-03-20T01:08:08.631Z,91.60
2019-03-20T01:10:37.434Z,91.20
2019-03-20T01:13:06.299Z,90.70
2019-03-20T01:15:36.183Z,90.90
2019-03-20T01:18:05.006Z,91.00
2019-03-20T01:20:33.822Z,91.00
2019-03-20T01:23:02.626Z,90.70
2019-03-20T01:25:31.467Z,90.60
2019-03-20T01:28:00.280Z,90.80
2019-03-20T01:30:39.398Z,91.00
2019-03-20T01:33:08.918Z,91.00
2019-03-20T01:35:37.719Z,91.00
2019-03-20T01:38:06.921Z,90.80
2019-03-20T01:40:35.727Z,91.10
2019-03-20T01:43:04.971Z,91.10
2019-03-20T01:45:33.878Z,91.20
2019-03-20T01:48:03.537Z,91.10
2019-03-20T01:50:33.274Z,90.60
2019-03-20T01:53:03.004Z,90.20
2019-03-20T01:55:32.782Z,90.10
2019-03-20T01:58:02.539Z,90.00
2019-03-20T02:00:31.458Z,90.00
2019-03-20T02:03:00.260Z,90.10
2019-03-20T02:05:35.826Z,90.50
2019-03-20T02:07:59.543Z,91.40
2019-03-20T02:10:29.346Z,91.70
2019-03-20T02:12:58.905Z,91.70
2019-03-20T02:15:38.266Z,91.70
2019-03-20T02:17:58.178Z,91.60
2019-03-20T02:20:27.006Z,91.40
2019-03-20T02:22:55.806Z,91.20
2019-03-20T02:25:24.631Z,91.60
2019-03-20T02:27:53.491Z,91.70
2019-03-20T02:30:22.299Z,91.60
2019-03-20T02:32:51.141Z,91.50
2019-03-20T02:35:19.947Z,91.90
2019-03-20T02:37:49.762Z,91.80
2019-03-20T02:40:18.609Z,91.80
2019-03-20T02:42:47.415Z,90.90
2019-03-20T02:45:16.738Z,90.90
2019-03-20T02:47:46.639Z,90.60
2019-03-20T02:50:15.447Z,90.50
2019-03-20T02:52:44.260Z,91.10
2019-03-20T02:55:14.015Z,91.70
2019-03-20T02:57:42.842Z,92.10
2019-03-20T03:00:18.411Z,91.90
2019-03-20T03:02:47.275Z,91.20
2019-03-20T03:05:16.405Z,90.90
2019-03-20T03:07:45.213Z,90.70
2019-03-20T03:10:15.482Z,91.10
2019-03-20T03:12:44.300Z,91.20
2019-03-20T03:15:13.617Z,91.20
2019-03-20T03:17:42.423Z,90.90
2019-03-20T03:20:11.818Z,90.40
2019-03-20T03:22:40.674Z,90.40
2019-03-20T03:25:10.264Z,90.50
2019-03-20T03:27:39.076Z,90.60
2019-03-20T03:30:09.376Z,90.60
2019-03-20T03:32:38.211Z,90.70
2019-03-20T03:35:07.312Z,90.90
2019-03-20T03:37:36.135Z,91.70
2019-03-20T03:40:09.400Z,91.60
2019-03-20T03:42:38.245Z,91.90
2019-03-20T03:45:10.940Z,92.00
2019-03-20T03:47:39.786Z,92.00
2019-03-20T03:50:09.295Z,91.70
2019-03-20T03:52:40.105Z,91.30
2019-03-20T03:55:09.611Z,91.50
2019-03-20T03:57:38.713Z,91.70
2019-03-20T04:00:09.211Z,91.40
2019-03-20T04:02:38.012Z,91.70
2019-03-20T04:05:06.876Z,92.00
2019-03-20T04:07:35.653Z,92.10
2019-03-20T04:10:06.168Z,92.10
2019-03-20T04:12:34.975Z,92.30
2019-03-20T04:15:04.878Z,92.20
2019-03-20T04:17:33.687Z,92.20
2019-03-20T04:20:02.579Z,92.40
2019-03-20T04:22:31.432Z,92.50
2019-03-20T04:25:00.458Z,92.40
2019-03-20T04:27:29.343Z,92.00
2019-03-20T04:29:59.016Z,91.20
2019-03-20T04:32:28.742Z,90.90
2019-03-20T04:34:57.665Z,90.80
2019-03-20T04:37:26.471Z,91.30
2019-03-20T04:39:55.275Z,90.90
2019-03-20T04:42:24.497Z,91.20
2019-03-20T04:44:54.330Z,91.50
2019-03-20T04:47:23.143Z,91.90
2019-03-20T04:49:51.946Z,92.10
2019-03-20T04:52:20.751Z,92.20
2019-03-20T04:54:49.586Z,92.20
2019-03-20T04:57:19.249Z,92.40
2019-03-20T04:59:48.081Z,92.30
2019-03-20T05:02:16.878Z,91.90
2019-03-20T05:04:45.686Z,91.40
2019-03-20T05:07:14.536Z,91.20
2019-03-20T05:09:43.343Z,91.90
2019-03-20T05:12:12.157Z,92.20
2019-03-20T05:14:41.974Z,92.20
2019-03-20T05:17:10.793Z,92.10
2019-03-20T05:19:39.639Z,92.10
2019-03-20T05:22:08.454Z,91.60
2019-03-20T05:24:37.269Z,91.20
2019-03-20T05:27:07.173Z,91.40
2019-03-20T05:29:36.000Z,91.70
2019-03-20T05:32:04.818Z,91.90
2019-03-20T05:34:34.492Z,91.90
2019-03-20T05:37:10.174Z,91.60
2019-03-20T05:39:35.630Z,91.40
2019-03-20T05:42:06.431Z,91.40
2019-03-20T05:44:36.181Z,91.50
2019-03-20T05:47:05.971Z,91.70
2019-03-20T05:49:35.707Z,91.90
2019-03-20T05:52:05.451Z,91.90
2019-03-20T05:54:35.201Z,92.00
2019-03-20T05:57:04.937Z,92.00
2019-03-20T05:59:34.722Z,91.90
2019-03-20T06:02:04.459Z,92.00
2019-03-20T06:04:34.222Z,91.90
2019-03-20T06:07:03.972Z,91.80
2019-03-20T06:09:33.718Z,91.80
2019-03-20T06:12:03.452Z,91.80
2019-03-20T06:14:33.193Z,91.80
2019-03-20T06:17:02.976Z,91.80
2019-03-20T06:19:32.707Z,91.80
2019-03-20T06:22:02.453Z,91.90
2019-03-20T06:24:32.202Z,91.90
2019-03-20T06:27:01.935Z,92.00
2019-03-20T06:29:31.702Z,92.10
2019-03-20T06:32:01.444Z,92.10
2019-03-20T06:34:31.347Z,92.00
2019-03-20T06:37:01.087Z,91.80
2019-03-20T06:39:30.853Z,91.80
2019-03-20T06:42:00.587Z,91.80
2019-03-20T06:44:30.319Z,91.60
2019-03-20T06:47:00.065Z,90.80
2019-03-20T06:49:30.795Z,90.10
2019-03-20T06:52:00.604Z,89.10
2019-03-20T06:54:30.339Z,88.70
2019-03-20T06:57:00.117Z,88.80
2019-03-20T06:59:32.794Z,88.60
2019-03-20T07:02:05.326Z,88.30
2019-03-20T07:04:54.531Z,89.10
2019-03-20T07:07:27.257Z,88.90
2019-03-20T07:10:17.861Z,88.00
2019-03-20T07:12:47.643Z,87.40
2019-03-20T07:15:17.385Z,87.00
2019-03-20T07:17:48.153Z,86.70
2019-03-20T07:20:17.885Z,86.00
2019-03-20T07:22:47.899Z,85.00
2019-03-20T07:25:17.650Z,84.70
2019-03-20T07:27:48.506Z,84.50
2019-03-20T07:30:18.247Z,83.90
2019-03-20T07:32:48.019Z,83.10
2019-03-20T07:35:17.763Z,83.20
2019-03-20T07:37:55.685Z,82.70
2019-03-20T07:40:18.967Z,82.50
2019-03-20T07:42:48.683Z,82.30
2019-03-20T07:45:17.613Z,81.50
2019-03-20T07:47:46.408Z,80.10
2019-03-20T07:50:15.214Z,78.40
2019-03-20T07:52:44.859Z,77.50
2019-03-20T07:55:13.742Z,77.10
2019-03-20T07:57:42.687Z,77.20
2019-03-20T08:00:12.581Z,76.80
2019-03-20T08:02:42.303Z,76.70
2019-03-20T08:05:11.101Z,76.60
2019-03-20T08:07:39.907Z,76.90
2019-03-20T08:10:10.177Z,75.40
2019-03-20T08:12:38.979Z,75.00
2019-03-20T08:15:09.306Z,74.60
2019-03-20T08:17:38.206Z,73.60
2019-03-20T08:20:08.486Z,72.30
2019-03-20T08:22:37.277Z,71.30
2019-03-20T08:25:06.590Z,70.40
2019-03-20T08:27:37.387Z,68.40
2019-03-20T08:30:07.740Z,68.20
2019-03-20T08:32:37.446Z,68.20
2019-03-20T08:35:09.384Z,66.90
2019-03-20T08:37:39.163Z,66.80
2019-03-20T08:40:19.407Z,66.30
2019-03-20T08:42:50.065Z,65.00
2019-03-20T08:45:19.801Z,64.60
2019-03-20T08:47:49.545Z,64.40
2019-03-20T08:50:20.874Z,64.00
2019-03-20T08:52:50.642Z,64.70
2019-03-20T08:55:21.375Z,63.90
2019-03-20T08:57:51.151Z,64.00
2019-03-20T09:00:24.927Z,63.80
2019-03-20T09:02:54.774Z,62.20
2019-03-20T09:05:24.483Z,60.50
2019-03-20T09:07:54.262Z,58.80
2019-03-20T09:10:26.078Z,58.90
2019-03-20T09:12:55.007Z,58.60
2019-03-20T09:15:24.670Z,57.80
2019-03-20T09:17:54.411Z,56.70
2019-03-20T09:20:24.760Z,57.10
2019-03-20T09:22:54.496Z,56.30
2019-03-20T09:25:27.643Z,56.00
2019-03-20T09:27:56.535Z,56.40
2019-03-20T09:30:30.138Z,56.30
2019-03-20T09:32:59.881Z,54.80
2019-03-20T09:35:29.632Z,54.70
2019-03-20T09:37:59.374Z,54.80
2019-03-20T09:40:29.716Z,54.60
2019-03-20T09:42:59.491Z,54.40
2019-03-20T09:45:29.219Z,53.90
2019-03-20T09:47:58.992Z,52.40
2019-03-20T09:50:29.324Z,52.70
2019-03-20T09:52:59.108Z,50.70
2019-03-20T09:55:28.845Z,51.30
2019-03-20T09:57:58.608Z,52.00
2019-03-20T10:00:29.181Z,51.60
2019-03-20T10:02:58.915Z,50.40
2019-03-20T10:05:28.646Z,50.20
2019-03-20T10:07:58.391Z,50.20
2019-03-20T10:10:29.334Z,49.70
2019-03-20T10:12:59.076Z,47.50
2019-03-20T10:15:34.624Z,45.90
2019-03-20T10:18:04.360Z,45.10
2019-03-20T10:20:34.123Z,46.20
2019-03-20T10:23:03.862Z,47.60
2019-03-20T10:25:43.916Z,48.10
2019-03-20T10:28:04.969Z,48.90
2019-03-20T10:30:34.722Z,49.00
2019-03-20T10:33:04.514Z,48.50
2019-03-20T10:35:34.250Z,48.00
2019-03-20T10:38:04.022Z,45.90
2019-03-20T10:40:33.774Z,44.30
2019-03-20T10:43:03.530Z,45.20
2019-03-20T10:45:33.259Z,46.30
2019-03-20T10:48:02.996Z,47.70
2019-03-20T10:50:32.906Z,47.30
2019-03-20T10:53:02.636Z,47.40
2019-03-20T10:55:32.367Z,45.90
2019-03-20T10:58:02.107Z,44.70
2019-03-20T11:00:31.846Z,44.80
2019-03-20T11:03:00.868Z,43.80
2019-03-20T11:05:30.524Z,42.70
2019-03-20T11:08:00.265Z,42.20
2019-03-20T11:10:30.010Z,42.00
2019-03-20T11:12:59.746Z,42.00
2019-03-20T11:15:29.798Z,42.80
2019-03-20T11:17:59.655Z,43.90
2019-03-20T11:20:29.434Z,44.00
2019-03-20T11:22:59.167Z,43.90
2019-03-20T11:25:29.558Z,44.70
2019-03-20T11:27:59.291Z,45.10
2019-03-20T11:30:30.898Z,43.30
2019-03-20T11:33:00.687Z,43.90
2019-03-20T11:35:30.424Z,44.40
2019-03-20T11:38:00.197Z,42.20
2019-03-20T11:40:39.978Z,41.80
2019-03-20T11:43:09.758Z,41.40
2019-03-20T11:45:40.591Z,42.20
2019-03-20T11:48:10.362Z,42.60
2019-03-20T11:50:41.393Z,43.00
2019-03-20T11:53:11.270Z,43.60
2019-03-20T11:55:41.122Z,42.80
2019-03-20T11:58:11.004Z,42.90
2019-03-20T12:00:40.938Z,43.80
2019-03-20T12:03:10.702Z,43.80
2019-03-20T12:05:40.443Z,45.00
2019-03-20T12:08:11.722Z,45.30
2019-03-20T12:10:41.503Z,44.00
2019-03-20T12:13:11.235Z,43.70
2019-03-20T12:15:41.027Z,44.50
2019-03-20T12:18:10.763Z,44.40
2019-03-20T12:20:40.499Z,43.00
2019-03-20T12:23:10.242Z,42.60
2019-03-20T12:25:41.375Z,41.60
2019-03-20T12:28:11.160Z,42.20
2019-03-20T12:30:40.887Z,42.30
2019-03-20T12:33:10.635Z,42.40
2019-03-20T12:35:44.548Z,42.10
2019-03-20T12:38:15.338Z,41.80
2019-03-20T12:40:45.267Z,41.90
2019-03-20T12:43:15.056Z,41.50
2019-03-20T12:45:44.796Z,41.50
2019-03-20T12:48:16.383Z,42.00
2019-03-20T12:50:46.140Z,41.50
2019-03-20T12:53:18.695Z,41.50
2019-03-20T12:55:48.445Z,41.50
2019-03-20T12:58:18.225Z,41.70
2019-03-20T13:03:16.775Z,41.10
2019-03-20T13:05:46.513Z,41.10
2019-03-20T13:08:16.233Z,41.50
2019-03-20T13:10:46.004Z,41.70
2019-03-20T13:13:15.789Z,41.50
2019-03-20T13:15:45.594Z,41.60
2019-03-20T13:18:16.335Z,39.80
2019-03-20T13:20:46.130Z,37.80
2019-03-20T13:23:18.811Z,37.70
2019-03-20T13:25:48.579Z,36.90
2019-03-20T13:28:18.315Z,37.40
2019-03-20T13:30:57.003Z,39.00
2019-03-20T13:33:26.749Z,38.40
2019-03-20T13:35:56.486Z,39.20
2019-03-20T13:38:26.233Z,39.60
2019-03-20T13:40:56.003Z,39.30
2019-03-20T13:43:25.732Z,39.00
2019-03-20T13:45:55.488Z,38.50
2019-03-20T13:48:25.214Z,36.90
2019-03-20T13:50:54.959Z,35.70
2019-03-20T13:53:24.749Z,35.60
2019-03-20T13:55:54.477Z,37.40
2019-03-20T13:58:24.256Z,37.30
2019-03-20T14:00:53.978Z,37.30
2019-03-20T14:03:23.718Z,37.30
2019-03-20T14:05:53.510Z,35.40
2019-03-20T14:08:23.259Z,36.00
2019-03-20T14:10:52.996Z,36.50
2019-03-20T14:13:22.774Z,37.00
2019-03-20T14:15:52.507Z,35.70
2019-03-20T14:18:22.240Z,36.70
2019-03-20T14:20:52.033Z,37.00
2019-03-20T14:23:21.755Z,35.40
2019-03-20T14:25:51.597Z,34.60
2019-03-20T14:28:21.373Z,33.30
2019-03-20T14:30:51.111Z,33.80
2019-03-20T14:33:21.131Z,34.80
2019-03-20T14:35:50.921Z,32.90
2019-03-20T14:38:20.762Z,31.20
2019-03-20T14:40:50.499Z,29.60
2019-03-20T14:43:20.259Z,27.90
2019-03-20T14:45:49.981Z,26.40
2019-03-20T14:48:20.768Z,24.60
2019-03-20T14:50:50.525Z,21.80
2019-03-20T14:53:20.290Z,22.20
2019-03-20T14:55:50.026Z,21.20
2019-03-20T14:58:19.766Z,21.40
2019-03-20T15:00:49.511Z,21.50
2019-03-20T15:03:19.255Z,21.10
2019-03-20T15:05:49.029Z,21.50
2019-03-20T15:08:18.771Z,21.80
2019-03-20T15:10:48.514Z,22.30
2019-03-20T15:13:18.260Z,22.20
2019-03-20T15:15:50.974Z,22.30
2019-03-20T15:18:20.722Z,22.40
2019-03-20T15:20:50.463Z,20.80
2019-03-20T15:23:20.346Z,20.70
2019-03-20T15:25:50.083Z,20.10
2019-03-20T15:28:19.876Z,21.60
2019-03-20T15:30:49.619Z,23.10
2019-03-20T15:33:19.365Z,24.90
2019-03-20T15:35:49.107Z,26.20
2019-03-20T15:38:18.853Z,28.00
2019-03-20T15:40:55.901Z,29.40
2019-03-20T15:43:19.999Z,31.10
2019-03-20T15:45:49.791Z,31.90
2019-03-20T15:48:19.548Z,32.80
2019-03-20T15:50:49.293Z,33.20
2019-03-20T15:53:19.051Z,33.90
2019-03-20T15:55:48.779Z,34.70
2019-03-20T15:58:18.555Z,35.70
2019-03-20T16:00:48.298Z,36.60
2019-03-20T16:03:27.090Z,37.00
2019-03-20T16:05:57.613Z,37.80
2019-03-20T16:08:27.405Z,38.20
2019-03-20T16:11:06.203Z,38.70
2019-03-20T16:13:28.548Z,39.60
2019-03-20T16:15:58.287Z,39.20
2019-03-20T16:18:28.082Z,39.40
2019-03-20T16:20:58.105Z,39.20
2019-03-20T16:23:27.871Z,39.20
2019-03-20T16:25:57.602Z,39.30
2019-03-20T16:28:27.641Z,40.10
2019-03-20T16:30:58.471Z,40.50
2019-03-20T16:33:28.203Z,40.40
2019-03-20T16:35:59.085Z,41.50
2019-03-20T16:38:28.844Z,42.30
2019-03-20T16:40:58.584Z,43.20
2019-03-20T16:43:28.342Z,43.60
2019-03-20T16:45:59.118Z,44.90
2019-03-20T16:48:28.862Z,45.10
2019-03-20T16:50:58.604Z,45.90
2019-03-20T16:53:28.346Z,47.00
2019-03-20T16:55:57.230Z,46.80
2019-03-20T16:58:26.930Z,47.50
2019-03-20T17:00:56.663Z,48.30
2019-03-20T17:03:26.410Z,48.90
2019-03-20T17:05:56.160Z,49.80
2019-03-20T17:08:25.879Z,50.50
2019-03-20T17:10:55.655Z,50.90
2019-03-20T17:13:25.375Z,51.60
2019-03-20T17:15:55.163Z,52.30
2019-03-20T17:18:24.895Z,52.80
2019-03-20T17:20:54.622Z,53.50
2019-03-20T17:23:24.352Z,53.80
2019-03-20T17:25:54.085Z,53.90
2019-03-20T17:28:23.855Z,54.40
2019-03-20T17:30:53.573Z,54.60
2019-03-20T17:33:23.310Z,55.00
2019-03-20T17:35:53.045Z,55.20
2019-03-20T17:38:22.766Z,55.10
2019-03-20T17:40:52.547Z,56.20
2019-03-20T17:43:22.289Z,56.90
2019-03-20T17:45:53.064Z,56.90
2019-03-20T17:48:22.866Z,57.30
2019-03-20T17:50:52.595Z,57.40
2019-03-20T17:53:21.487Z,58.20
2019-03-20T17:55:51.174Z,58.60
2019-03-20T17:58:20.958Z,59.00
2019-03-20T18:00:52.270Z,59.00
2019-03-20T18:03:22.038Z,59.60
2019-03-20T18:05:51.772Z,59.20
2019-03-20T18:08:21.505Z,59.10
2019-03-20T18:10:51.235Z,59.50
2019-03-20T18:13:20.962Z,59.70
2019-03-20T18:15:50.743Z,60.10
2019-03-20T18:18:19.630Z,60.60
2019-03-20T18:20:48.447Z,60.50
2019-03-20T18:23:17.243Z,60.90
2019-03-20T18:25:46.042Z,62.50
2019-03-20T18:28:15.756Z,62.20
2019-03-20T18:30:44.633Z,62.10
2019-03-20T18:33:13.455Z,63.10
2019-03-20T18:35:43.104Z,64.30
2019-03-20T18:38:12.831Z,65.10
2019-03-20T18:40:42.598Z,66.70
2019-03-20T18:43:12.321Z,67.60
2019-03-20T18:45:41.203Z,67.90
2019-03-20T18:48:10.017Z,68.50
2019-03-20T18:50:38.810Z,68.60
2019-03-20T18:53:08.503Z,68.80
2019-03-20T18:55:38.226Z,69.00
2019-03-20T18:58:07.998Z,69.80
2019-03-20T19:00:37.748Z,72.00
2019-03-20T19:03:19.343Z,73.90
2019-03-20T19:05:55.224Z,74.60
2019-03-20T19:08:25.083Z,73.00
2019-03-20T19:10:54.930Z,72.80
2019-03-20T19:13:24.692Z,72.70
2019-03-20T19:15:53.574Z,73.10
2019-03-20T19:18:23.255Z,73.70
2019-03-20T19:20:53.001Z,74.30
2019-03-20T19:23:22.719Z,74.30
2019-03-20T19:25:52.510Z,74.20
2019-03-20T19:28:22.190Z,74.40
2019-03-20T19:30:51.972Z,74.70
2019-03-20T19:33:22.813Z,75.20
2019-03-20T19:35:52.627Z,75.20
2019-03-20T19:38:22.364Z,75.80
2019-03-20T19:40:52.148Z,76.40
2019-03-20T19:43:22.973Z,76.60
2019-03-20T19:45:53.136Z,76.80
2019-03-20T19:48:23.231Z,77.30
2019-03-20T19:50:53.039Z,77.40
2019-03-20T19:53:22.777Z,77.70
2019-03-20T19:55:51.679Z,78.40
2019-03-20T19:58:21.339Z,77.70
2019-03-20T20:00:50.242Z,77.90
2019-03-20T20:03:19.902Z,77.90
2019-03-20T20:05:49.646Z,78.00
2019-03-20T20:08:19.439Z,78.10
2019-03-20T20:10:49.177Z,78.40
2019-03-20T20:13:18.969Z,78.90
2019-03-20T20:15:48.723Z,78.70
2019-03-20T20:18:18.484Z,79.10
2019-03-20T20:20:48.257Z,79.40
2019-03-20T20:23:18.048Z,79.30
2019-03-20T20:25:47.949Z,79.60
2019-03-20T20:28:17.683Z,79.80
2019-03-20T20:30:47.423Z,80.00
2019-03-20T20:33:17.169Z,80.00
2019-03-20T20:35:46.908Z,80.30
2019-03-20T20:38:16.696Z,80.10
2019-03-20T20:40:46.739Z,80.30
2019-03-20T20:43:16.523Z,80.50
2019-03-20T20:45:46.267Z,80.00
2019-03-20T20:48:16.042Z,80.00
2019-03-20T20:50:45.780Z,80.50
2019-03-20T20:53:15.511Z,80.80
2019-03-20T20:55:45.311Z,80.80
2019-03-20T20:58:15.138Z,80.70
2019-03-20T21:00:44.873Z,80.80
2019-03-20T21:03:16.673Z,80.50
2019-03-20T21:05:46.414Z,80.80
2019-03-20T21:08:16.180Z,81.30
2019-03-20T21:10:46.822Z,81.30
2019-03-20T21:13:16.562Z,81.30
2019-03-20T21:15:47.242Z,81.30
2019-03-20T21:18:44.264Z,81.80
2019-03-20T21:21:14.058Z,82.00
2019-03-20T21:24:19.939Z,82.10
2019-03-20T21:27:07.900Z,82.50
2019-03-20T21:29:58.533Z,82.00
2019-03-20T21:32:33.988Z,80.40
2019-03-20T21:35:38.511Z,79.20
2019-03-20T21:38:07.678Z,77.20
2019-03-20T21:40:52.435Z,76.40
2019-03-20T21:43:51.691Z,74.70
2019-03-20T21:46:41.043Z,73.00
2019-03-20T21:49:10.823Z,70.80
2019-03-20T21:51:40.569Z,70.30
2019-03-20T21:54:28.331Z,69.10
2019-03-20T21:57:06.847Z,68.00
2019-03-20T21:59:58.862Z,67.80
2019-03-20T22:02:43.436Z,66.10
2019-03-20T22:05:22.857Z,64.80
2019-03-20T22:07:44.163Z,64.90
2019-03-20T22:10:26.502Z,64.40
2019-03-20T22:13:18.055Z,65.90
2019-03-20T22:15:52.662Z,67.50
2019-03-20T22:18:31.874Z,68.60
2019-03-20T22:21:02.178Z,70.40
2019-03-20T22:23:32.448Z,71.70
2019-03-20T22:26:02.710Z,73.40
2019-03-20T22:28:35.965Z,74.20
2019-03-20T22:31:04.754Z,75.30
2019-03-20T22:33:51.742Z,76.60
2019-03-20T22:36:20.549Z,77.10
2019-03-20T22:38:50.831Z,77.20
2019-03-20T22:41:27.190Z,77.80
2019-03-20T22:43:57.510Z,78.10
2019-03-20T22:46:43.019Z,78.20
2019-03-20T22:49:22.473Z,77.90
2019-03-20T22:51:58.558Z,78.60
2019-03-20T22:54:28.869Z,79.10
2019-03-20T22:57:15.523Z,79.20
2019-03-20T22:59:44.422Z,80.30
2019-03-20T23:02:14.690Z,80.50
2019-03-20T23:04:44.996Z,81.40
2019-03-20T23:07:13.784Z,81.00
2019-03-20T23:09:42.585Z,81.10
2019-03-20T23:12:12.425Z,81.40
2019-03-20T23:14:42.025Z,81.70
2019-03-20T23:17:10.866Z,81.90
2019-03-20T23:19:41.418Z,82.20
2019-03-20T23:22:26.075Z,82.60
2019-03-20T23:24:54.866Z,82.60
2019-03-20T23:27:24.908Z,82.40
2019-03-20T23:29:53.716Z,82.30
2019-03-20T23:32:22.511Z,82.10
2019-03-20T23:34:51.353Z,82.30
2019-03-20T23:37:20.142Z,82.50
2019-03-20T23:39:48.954Z,83.10
2019-03-20T23:42:17.768Z,84.20
2019-03-20T23:44:46.568Z,83.30
2019-03-20T23:47:16.880Z,83.30
2019-03-20T23:49:45.682Z,83.20
2019-03-20T23:52:14.480Z,83.00
2019-03-20T23:54:43.836Z,82.80
2019-03-20T23:57:12.637Z,83.20
2019-03-20T23:59:41.434Z,83.90
